createdAt,value
2019-03-30T00:01:24.265Z,66.40
2019-03-30T00:03:52.808Z,67.47
2019-03-30T00:06:21.335Z,72.23
2019-03-30T00:08:49.787Z,64.90
2019-03-30T00:11:18.241Z,63.53
2019-03-30T00:13:46.688Z,67.07
2019-03-30T00:16:15.131Z,65.83
2019-03-30T00:18:43.599Z,67.83
2019-03-30T00:21:12.094Z,64.70
2019-03-30T00:23:40.618Z,67.93
2019-03-30T00:26:09.158Z,73.63
2019-03-30T00:28:37.810Z,65.07
2019-03-30T00:31:06.364Z,63.60
2019-03-30T00:33:34.871Z,65.27
2019-03-30T00:36:03.346Z,62.17
2019-03-30T00:38:31.972Z,62.47
2019-03-30T00:41:00.451Z,57.47
2019-03-30T00:43:28.957Z,60.90
2019-03-30T00:45:57.407Z,63.33
2019-03-30T00:48:25.848Z,64.13
2019-03-30T00:50:54.304Z,61.70
2019-03-30T00:53:22.831Z,72.83
2019-03-30T00:55:51.411Z,64.27
2019-03-30T00:58:19.851Z,63.13
2019-03-30T01:00:48.615Z,63.33
2019-03-30T01:03:17.092Z,67.57
2019-03-30T01:05:45.555Z,69.27
2019-03-30T01:08:16.002Z,68.60
2019-03-30T01:10:44.465Z,66.27
2019-03-30T01:13:12.906Z,64.60
2019-03-30T01:15:41.391Z,60.37
2019-03-30T01:18:09.832Z,65.70
2019-03-30T01:20:38.293Z,61.80
2019-03-30T01:23:13.962Z,57.77
2019-03-30T01:25:42.381Z,59.93
2019-03-30T01:28:10.891Z,63.90
2019-03-30T01:30:39.381Z,71.40
2019-03-30T01:33:07.997Z,67.10
2019-03-30T01:35:36.489Z,69.50
2019-03-30T01:38:04.992Z,61.67
2019-03-30T01:40:33.441Z,68.57
2019-03-30T01:43:01.906Z,67.60
2019-03-30T01:45:30.366Z,68.73
2019-03-30T01:47:58.832Z,65.13
2019-03-30T01:50:27.372Z,61.70
2019-03-30T01:52:55.911Z,57.67
2019-03-30T01:55:24.391Z,61.43
2019-03-30T01:57:52.873Z,62.63
2019-03-30T02:00:21.460Z,59.30
2019-03-30T02:02:49.909Z,59.97
2019-03-30T02:05:18.361Z,64.10
2019-03-30T02:07:47.026Z,63.17
2019-03-30T02:10:18.722Z,64.33
2019-03-30T02:12:47.202Z,69.07
2019-03-30T02:15:15.739Z,71.23
2019-03-30T02:17:44.322Z,73.97
2019-03-30T02:20:30.340Z,82.63
2019-03-30T02:22:48.637Z,73.67
2019-03-30T02:25:17.096Z,74.77
2019-03-30T02:27:45.616Z,70.63
2019-03-30T02:30:14.155Z,72.77
2019-03-30T02:32:42.702Z,73.57
2019-03-30T02:35:11.282Z,63.13
2019-03-30T02:37:39.774Z,64.50
2019-03-30T02:40:08.400Z,65.50
2019-03-30T02:42:37.044Z,65.50
2019-03-30T02:45:06.874Z,63.90
2019-03-30T02:47:35.433Z,65.20
2019-03-30T02:50:05.535Z,58.57
2019-03-30T02:52:34.018Z,59.73
2019-03-30T02:55:02.572Z,63.07
2019-03-30T02:57:31.419Z,65.07
2019-03-30T02:59:59.949Z,56.77
2019-03-30T03:02:28.455Z,58.50
2019-03-30T03:04:56.976Z,61.00
2019-03-30T03:07:25.500Z,63.60
2019-03-30T03:09:54.013Z,64.67
2019-03-30T03:12:22.523Z,71.70
2019-03-30T03:14:51.001Z,63.10
2019-03-30T03:17:19.534Z,65.17
2019-03-30T03:19:48.099Z,62.47
2019-03-30T03:22:16.629Z,64.97
2019-03-30T03:24:45.211Z,63.87
2019-03-30T03:27:13.661Z,54.17
2019-03-30T03:29:43.913Z,54.20
2019-03-30T03:32:12.389Z,56.53
2019-03-30T03:34:40.942Z,52.93
2019-03-30T03:37:09.639Z,58.77
2019-03-30T03:39:38.180Z,62.00
2019-03-30T03:42:06.645Z,64.80
2019-03-30T03:44:35.224Z,65.90
2019-03-30T03:47:03.667Z,67.87
2019-03-30T03:49:32.221Z,68.27
2019-03-30T03:52:01.365Z,74.43
2019-03-30T03:54:30.078Z,66.97
2019-03-30T03:56:58.823Z,80.70
2019-03-30T03:59:28.114Z,84.93
2019-03-30T04:01:58.858Z,73.27
2019-03-30T04:04:27.812Z,71.60
2019-03-30T04:06:59.371Z,67.93
2019-03-30T04:09:30.841Z,69.67
2019-03-30T04:11:59.582Z,62.73
2019-03-30T04:14:29.866Z,67.63
2019-03-30T04:16:58.418Z,63.93
2019-03-30T04:19:26.924Z,64.53
2019-03-30T04:21:55.413Z,64.87
2019-03-30T04:24:23.878Z,71.40
2019-03-30T04:26:52.354Z,66.97
2019-03-30T04:29:20.965Z,63.60
2019-03-30T04:31:49.967Z,69.80
2019-03-30T04:34:18.420Z,67.73
2019-03-30T04:36:46.953Z,70.30
2019-03-30T04:39:15.438Z,66.97
2019-03-30T04:41:44.003Z,61.50
2019-03-30T04:44:12.531Z,66.17
2019-03-30T04:46:41.055Z,58.87
2019-03-30T04:49:09.556Z,61.83
2019-03-30T04:51:38.180Z,59.23
2019-03-30T04:54:06.706Z,57.03
2019-03-30T04:56:35.246Z,58.57
2019-03-30T04:59:03.773Z,51.83
2019-03-30T05:01:32.261Z,49.30
2019-03-30T05:04:00.711Z,60.03
2019-03-30T05:06:29.187Z,62.73
2019-03-30T05:08:57.653Z,55.27
2019-03-30T05:11:26.288Z,53.40
2019-03-30T05:13:54.860Z,51.87
2019-03-30T05:16:23.336Z,52.37
2019-03-30T05:18:51.902Z,52.60
2019-03-30T05:21:20.429Z,58.27
2019-03-30T05:23:48.893Z,55.17
2019-03-30T05:26:17.354Z,56.53
2019-03-30T05:28:45.879Z,50.93
2019-03-30T05:31:14.411Z,53.00
2019-03-30T05:33:43.023Z,47.97
2019-03-30T05:36:11.488Z,49.43
2019-03-30T05:38:40.026Z,53.67
2019-03-30T05:41:08.561Z,55.07
2019-03-30T05:43:37.117Z,50.37
2019-03-30T05:46:05.644Z,52.10
2019-03-30T05:48:34.114Z,52.67
2019-03-30T05:51:02.602Z,46.10
2019-03-30T05:53:31.073Z,46.00
2019-03-30T05:55:59.526Z,49.63
2019-03-30T05:58:28.072Z,44.10
2019-03-30T06:00:56.607Z,41.57
2019-03-30T06:03:25.163Z,37.40
2019-03-30T06:05:53.648Z,37.27
2019-03-30T06:08:22.175Z,36.90
2019-03-30T06:10:50.707Z,35.23
2019-03-30T06:13:19.294Z,34.10
2019-03-30T06:15:50.583Z,31.03
2019-03-30T06:18:19.139Z,29.57
2019-03-30T06:20:47.599Z,27.53
2019-03-30T06:23:16.076Z,29.93
2019-03-30T06:25:44.589Z,30.20
2019-03-30T06:28:13.102Z,29.97
2019-03-30T06:30:41.566Z,29.00
2019-03-30T06:33:10.170Z,26.53
2019-03-30T06:35:38.738Z,29.83
2019-03-30T06:38:07.300Z,27.40
2019-03-30T06:40:35.887Z,32.60
2019-03-30T06:43:07.553Z,29.53
2019-03-30T06:45:34.697Z,32.40
2019-03-30T06:48:03.250Z,32.17
2019-03-30T06:50:31.751Z,36.47
2019-03-30T06:53:00.215Z,31.40
2019-03-30T06:55:28.715Z,30.43
2019-03-30T06:57:57.330Z,27.63
2019-03-30T07:00:33.459Z,29.53
2019-03-30T07:03:04.077Z,30.27
2019-03-30T07:05:35.739Z,29.07
2019-03-30T07:08:04.519Z,28.63
2019-03-30T07:10:33.170Z,27.10
2019-03-30T07:13:03.575Z,30.47
2019-03-30T07:15:33.879Z,25.87
2019-03-30T07:18:03.942Z,26.87
2019-03-30T07:20:32.509Z,29.57
2019-03-30T07:23:11.700Z,27.48
2019-03-30T07:25:31.215Z,27.27
2019-03-30T07:27:59.748Z,29.57
2019-03-30T07:30:28.281Z,27.70
2019-03-30T07:32:56.805Z,28.23
2019-03-30T07:35:25.413Z,27.40
2019-03-30T07:37:53.895Z,28.15
2019-03-30T07:40:22.495Z,28.27
2019-03-30T07:42:51.088Z,28.07
2019-03-30T07:45:20.245Z,28.65
2019-03-30T07:47:48.759Z,28.63
2019-03-30T07:50:17.660Z,24.07
2019-03-30T07:52:46.202Z,28.38
2019-03-30T07:55:16.898Z,26.73
2019-03-30T07:57:45.666Z,24.43
2019-03-30T08:00:15.157Z,29.15
2019-03-30T08:02:49.459Z,29.57
2019-03-30T08:05:17.970Z,28.30
2019-03-30T08:07:46.503Z,25.25
2019-03-30T08:10:15.628Z,28.42
2019-03-30T08:12:44.172Z,26.12
2019-03-30T08:15:13.261Z,25.25
2019-03-30T08:17:44.660Z,25.25
2019-03-30T08:20:13.396Z,25.15
2019-03-30T08:22:42.025Z,22.65
2019-03-30T08:25:10.880Z,26.77
2019-03-30T08:27:39.539Z,27.75
2019-03-30T08:30:08.938Z,29.20
2019-03-30T08:32:37.479Z,26.23
2019-03-30T08:35:07.519Z,28.52
2019-03-30T08:37:35.983Z,25.72
2019-03-30T08:40:05.593Z,26.87
2019-03-30T08:42:34.072Z,25.05
2019-03-30T08:45:02.569Z,23.42
2019-03-30T08:47:31.142Z,25.85
2019-03-30T08:49:59.680Z,24.00
2019-03-30T08:52:29.700Z,21.75
2019-03-30T08:54:58.259Z,24.80
2019-03-30T08:57:26.967Z,24.82
2019-03-30T08:59:55.535Z,24.25
2019-03-30T09:02:24.182Z,24.47
2019-03-30T09:04:52.662Z,25.57
2019-03-30T09:07:21.246Z,22.93
2019-03-30T09:09:49.732Z,21.10
2019-03-30T09:12:18.234Z,23.32
2019-03-30T09:14:46.736Z,22.22
2019-03-30T09:17:15.279Z,21.95
2019-03-30T09:19:43.750Z,22.17
2019-03-30T09:22:12.238Z,22.85
2019-03-30T09:24:40.782Z,20.82
2019-03-30T09:27:09.239Z,23.62
2019-03-30T09:29:37.724Z,23.45
2019-03-30T09:32:14.397Z,19.95
2019-03-30T09:34:36.550Z,21.57
2019-03-30T09:37:05.091Z,22.50
2019-03-30T09:39:33.634Z,24.57
2019-03-30T09:42:02.212Z,23.27
2019-03-30T09:44:30.706Z,21.37
2019-03-30T09:46:59.160Z,21.25
2019-03-30T09:49:27.765Z,19.15
2019-03-30T09:51:56.289Z,20.60
2019-03-30T09:54:24.875Z,19.65
2019-03-30T09:56:53.395Z,18.42
2019-03-30T09:59:21.897Z,19.52
2019-03-30T10:01:50.423Z,23.30
2019-03-30T10:04:18.982Z,20.40
2019-03-30T10:06:47.490Z,21.48
2019-03-30T10:09:15.972Z,19.42
2019-03-30T10:11:44.493Z,22.25
2019-03-30T10:14:13.026Z,17.62
2019-03-30T10:16:41.495Z,17.85
2019-03-30T10:19:09.975Z,18.42
2019-03-30T10:21:38.526Z,17.07
2019-03-30T10:24:08.031Z,18.10
2019-03-30T10:26:37.762Z,16.85
2019-03-30T10:29:10.064Z,20.75
2019-03-30T10:31:38.671Z,20.12
2019-03-30T10:34:07.207Z,19.62
2019-03-30T10:36:35.722Z,16.65
2019-03-30T10:39:06.726Z,20.60
2019-03-30T10:41:35.239Z,16.17
2019-03-30T10:44:03.911Z,17.95
2019-03-30T10:46:32.490Z,18.82
2019-03-30T10:49:00.947Z,20.62
2019-03-30T10:51:29.535Z,18.12
2019-03-30T10:53:58.077Z,18.85
2019-03-30T10:56:26.566Z,20.05
2019-03-30T10:58:55.058Z,20.32
2019-03-30T11:01:23.516Z,19.07
2019-03-30T11:03:52.061Z,20.00
2019-03-30T11:06:20.590Z,23.25
2019-03-30T11:08:49.122Z,21.67
2019-03-30T11:11:17.624Z,22.13
2019-03-30T11:13:46.111Z,21.63
2019-03-30T11:16:14.677Z,25.13
2019-03-30T11:18:43.220Z,21.63
2019-03-30T11:21:11.757Z,21.23
2019-03-30T11:23:40.215Z,22.17
2019-03-30T11:26:08.735Z,20.70
2019-03-30T11:28:37.241Z,20.83
2019-03-30T11:31:05.899Z,30.60
2019-03-30T11:33:34.384Z,21.67
2019-03-30T11:36:02.958Z,22.87
2019-03-30T11:38:31.470Z,21.30
2019-03-30T11:40:59.989Z,24.40
2019-03-30T11:43:28.511Z,25.67
2019-03-30T11:45:57.017Z,25.43
2019-03-30T11:48:25.531Z,23.93
2019-03-30T11:50:54.080Z,23.80
2019-03-30T11:53:22.560Z,26.37
2019-03-30T11:55:51.080Z,26.20
2019-03-30T11:58:19.561Z,27.60
2019-03-30T12:00:48.111Z,31.70
2019-03-30T12:03:16.598Z,28.83
2019-03-30T12:05:45.125Z,24.80
2019-03-30T12:08:13.634Z,29.77
2019-03-30T12:10:42.154Z,29.37
2019-03-30T12:13:10.653Z,28.23
2019-03-30T12:15:39.250Z,30.27
2019-03-30T12:18:07.739Z,26.53
2019-03-30T12:20:36.262Z,28.07
2019-03-30T12:23:04.750Z,26.53
2019-03-30T12:25:35.944Z,27.67
2019-03-30T12:28:03.501Z,27.37
2019-03-30T12:30:32.023Z,26.13
2019-03-30T12:33:00.531Z,28.40
2019-03-30T12:35:29.070Z,26.30
2019-03-30T12:37:57.658Z,28.63
2019-03-30T12:40:26.150Z,30.47
2019-03-30T12:42:54.621Z,28.53
2019-03-30T12:45:23.147Z,30.50
2019-03-30T12:47:51.741Z,30.70
2019-03-30T12:50:20.697Z,30.80
2019-03-30T12:52:49.488Z,31.37
2019-03-30T12:55:18.063Z,30.43
2019-03-30T12:57:46.645Z,32.77
2019-03-30T13:00:15.635Z,31.87
2019-03-30T13:02:44.194Z,35.60
2019-03-30T13:05:12.745Z,28.27
2019-03-30T13:07:41.202Z,29.70
2019-03-30T13:10:10.016Z,25.33
2019-03-30T13:12:38.535Z,27.57
2019-03-30T13:15:08.043Z,25.30
2019-03-30T13:17:36.573Z,27.00
2019-03-30T13:20:06.309Z,28.83
2019-03-30T13:22:34.835Z,29.63
2019-03-30T13:25:03.499Z,27.63
2019-03-30T13:27:31.962Z,26.63
2019-03-30T13:30:01.263Z,27.27
2019-03-30T13:32:29.864Z,27.67
2019-03-30T13:34:58.362Z,25.30
2019-03-30T13:37:26.887Z,24.87
2019-03-30T13:39:55.378Z,23.20
2019-03-30T13:42:23.842Z,25.23
2019-03-30T13:44:52.323Z,23.63
2019-03-30T13:47:20.835Z,25.83
2019-03-30T13:49:49.352Z,22.93
2019-03-30T13:52:17.899Z,25.60
2019-03-30T13:54:46.375Z,26.30
2019-03-30T13:57:14.831Z,25.33
2019-03-30T13:59:43.308Z,24.23
2019-03-30T14:02:11.857Z,24.33
2019-03-30T14:04:40.442Z,24.80
2019-03-30T14:07:15.344Z,23.33
2019-03-30T14:09:41.332Z,23.97
2019-03-30T14:12:10.039Z,25.37
2019-03-30T14:14:38.609Z,24.77
2019-03-30T14:17:12.798Z,51.40
2019-03-30T14:19:41.330Z,23.20
2019-03-30T14:22:10.292Z,21.53
2019-03-30T14:24:39.070Z,19.77
2019-03-30T14:27:07.744Z,21.70
2019-03-30T14:29:40.758Z,23.73
2019-03-30T14:32:09.385Z,23.77
2019-03-30T14:34:37.907Z,26.03
2019-03-30T14:37:06.534Z,23.07
2019-03-30T14:39:35.034Z,24.07
2019-03-30T14:42:03.577Z,25.43
2019-03-30T14:44:32.079Z,26.87
2019-03-30T14:47:00.563Z,25.73
2019-03-30T14:49:29.053Z,24.43
2019-03-30T14:51:57.617Z,24.17
2019-03-30T14:54:26.083Z,22.50
2019-03-30T14:56:55.075Z,23.63
2019-03-30T14:59:23.518Z,26.30
2019-03-30T15:01:52.005Z,22.20
2019-03-30T15:04:20.530Z,25.07
2019-03-30T15:06:55.755Z,23.37
2019-03-30T15:09:24.288Z,20.50
2019-03-30T15:11:52.845Z,20.67
2019-03-30T15:14:21.355Z,22.00
2019-03-30T15:16:50.003Z,20.50
2019-03-30T15:19:18.453Z,19.77
2019-03-30T15:21:47.003Z,23.03
2019-03-30T15:24:15.550Z,23.57
2019-03-30T15:26:44.022Z,27.90
2019-03-30T15:29:12.492Z,21.37
2019-03-30T15:31:40.955Z,21.93
2019-03-30T15:34:09.434Z,20.30
2019-03-30T15:36:38.045Z,21.00
2019-03-30T15:39:07.521Z,20.57
2019-03-30T15:41:36.108Z,24.47
2019-03-30T15:44:04.690Z,19.67
2019-03-30T15:46:33.219Z,18.87
2019-03-30T15:49:01.699Z,21.33
2019-03-30T15:51:30.239Z,23.40
2019-03-30T15:53:58.690Z,18.90
2019-03-30T15:56:27.132Z,21.90
2019-03-30T15:58:55.635Z,18.43
2019-03-30T16:01:24.149Z,19.03
2019-03-30T16:03:52.683Z,16.70
2019-03-30T16:06:21.151Z,22.97
2019-03-30T16:08:49.637Z,23.57
2019-03-30T16:11:18.205Z,21.10
2019-03-30T16:13:46.721Z,22.40
2019-03-30T16:16:17.235Z,19.83
2019-03-30T16:18:45.848Z,19.03
2019-03-30T16:21:14.336Z,21.27
2019-03-30T16:23:42.855Z,21.67
2019-03-30T16:26:11.355Z,19.67
2019-03-30T16:28:39.840Z,21.30
2019-03-30T16:31:08.387Z,22.73
2019-03-30T16:33:36.861Z,19.10
2019-03-30T16:36:05.413Z,20.77
2019-03-30T16:38:33.879Z,20.83
2019-03-30T16:41:02.336Z,17.20
2019-03-30T16:43:30.804Z,18.17
2019-03-30T16:45:59.404Z,18.73
2019-03-30T16:48:27.885Z,17.80
2019-03-30T16:50:56.449Z,18.40
2019-03-30T16:53:25.002Z,16.83
2019-03-30T16:55:53.455Z,17.03
2019-03-30T16:58:22.003Z,17.80
2019-03-30T17:00:56.896Z,15.40
2019-03-30T17:03:21.611Z,19.10
2019-03-30T17:05:50.219Z,17.83
2019-03-30T17:08:18.721Z,21.33
2019-03-30T17:10:47.275Z,17.57
2019-03-30T17:13:15.747Z,18.13
2019-03-30T17:15:44.232Z,17.43
2019-03-30T17:18:12.865Z,17.77
2019-03-30T17:20:41.424Z,23.37
2019-03-30T17:23:09.992Z,20.10
2019-03-30T17:25:38.516Z,21.00
2019-03-30T17:28:07.242Z,22.00
2019-03-30T17:30:37.583Z,18.53
2019-03-30T17:33:06.122Z,19.80
2019-03-30T17:35:34.857Z,17.73
2019-03-30T17:38:03.440Z,21.07
2019-03-30T17:40:31.994Z,21.43
2019-03-30T17:43:00.578Z,27.63
2019-03-30T17:45:29.521Z,28.90
2019-03-30T17:47:58.031Z,26.53
2019-03-30T17:50:26.582Z,25.83
2019-03-30T17:52:55.204Z,27.20
2019-03-30T17:55:33.681Z,27.73
2019-03-30T17:57:53.986Z,27.53
2019-03-30T18:00:24.717Z,23.00
2019-03-30T18:02:53.504Z,26.43
2019-03-30T18:05:22.746Z,28.93
2019-03-30T18:07:51.357Z,30.77
2019-03-30T18:10:20.083Z,27.20
2019-03-30T18:12:50.338Z,23.63
2019-03-30T18:15:19.031Z,26.03
2019-03-30T18:17:49.039Z,24.63
2019-03-30T18:20:17.583Z,24.03
2019-03-30T18:22:46.344Z,28.87
2019-03-30T18:25:15.014Z,27.73
2019-03-30T18:27:43.570Z,27.87
2019-03-30T18:30:12.921Z,33.40
2019-03-30T18:32:41.819Z,38.37
2019-03-30T18:35:10.408Z,38.93
2019-03-30T18:37:39.586Z,40.33
2019-03-30T18:40:10.019Z,41.47
2019-03-30T18:42:38.483Z,41.07
2019-03-30T18:45:08.169Z,41.63
2019-03-30T18:47:36.732Z,40.60
2019-03-30T18:50:07.414Z,44.57
2019-03-30T18:52:36.422Z,44.40
2019-03-30T18:55:06.563Z,50.73
2019-03-30T18:57:35.024Z,54.53
2019-03-30T19:00:04.683Z,53.83
2019-03-30T19:02:33.249Z,51.57
2019-03-30T19:05:01.787Z,48.10
2019-03-30T19:07:30.392Z,53.60
2019-03-30T19:09:58.873Z,53.77
2019-03-30T19:12:27.442Z,58.13
2019-03-30T19:14:55.954Z,57.30
2019-03-30T19:17:24.407Z,58.17
2019-03-30T19:19:52.880Z,55.97
2019-03-30T19:22:23.102Z,60.60
2019-03-30T19:24:51.607Z,59.67
2019-03-30T19:27:20.147Z,56.80
2019-03-30T19:29:48.612Z,61.23
2019-03-30T19:32:17.090Z,63.27
2019-03-30T19:34:45.543Z,60.40
2019-03-30T19:37:14.029Z,60.93
2019-03-30T19:39:42.591Z,62.73
2019-03-30T19:42:11.136Z,68.87
2019-03-30T19:44:39.757Z,66.77
2019-03-30T19:47:08.257Z,64.33
2019-03-30T19:49:36.783Z,70.27
2019-03-30T19:52:05.774Z,71.13
2019-03-30T19:54:34.499Z,79.00
2019-03-30T19:57:02.986Z,78.77
2019-03-30T19:59:31.449Z,88.63
2019-03-30T20:02:00.022Z,81.97
2019-03-30T20:04:28.488Z,85.30
2019-03-30T20:07:00.097Z,92.50
2019-03-30T20:09:28.694Z,93.10
2019-03-30T20:11:57.222Z,88.07
2019-03-30T20:14:25.757Z,94.60
2019-03-30T20:16:54.206Z,94.03
2019-03-30T20:19:22.659Z,95.90
2019-03-30T20:21:51.121Z,92.37
2019-03-30T20:24:19.677Z,92.37
2019-03-30T20:26:48.129Z,100.60
2019-03-30T20:29:25.331Z,95.07
2019-03-30T20:31:46.762Z,92.00
2019-03-30T20:34:15.452Z,94.27
2019-03-30T20:36:43.955Z,91.33
2019-03-30T20:39:12.428Z,97.40
2019-03-30T20:41:40.911Z,92.87
2019-03-30T20:44:09.445Z,85.10
2019-03-30T20:46:37.882Z,88.47
2019-03-30T20:49:06.335Z,91.10
2019-03-30T20:51:34.798Z,91.57
2019-03-30T20:54:03.279Z,86.73
2019-03-30T20:56:31.852Z,94.23
2019-03-30T20:59:00.713Z,93.43
2019-03-30T21:01:29.168Z,88.33
2019-03-30T21:03:57.688Z,78.60
2019-03-30T21:06:26.171Z,73.13
2019-03-30T21:08:54.639Z,83.73
2019-03-30T21:11:23.236Z,77.07
2019-03-30T21:13:51.716Z,81.13
2019-03-30T21:16:20.344Z,82.57
2019-03-30T21:18:48.980Z,75.77
2019-03-30T21:21:17.599Z,80.97
2019-03-30T21:23:46.451Z,80.40
2019-03-30T21:26:15.073Z,72.47
2019-03-30T21:28:43.693Z,76.47
2019-03-30T21:31:12.358Z,65.70
2019-03-30T21:33:40.875Z,69.30
2019-03-30T21:36:09.336Z,64.00
2019-03-30T21:38:37.853Z,64.27
2019-03-30T21:41:06.370Z,68.10
2019-03-30T21:43:34.814Z,62.63
2019-03-30T21:46:03.271Z,62.50
2019-03-30T21:48:31.739Z,63.53
2019-03-30T21:51:00.232Z,58.87
2019-03-30T21:53:28.728Z,63.50
2019-03-30T21:55:57.267Z,62.50
2019-03-30T21:58:25.704Z,63.03
2019-03-30T22:00:54.199Z,60.10
2019-03-30T22:03:22.660Z,56.23
2019-03-30T22:05:51.177Z,58.97
2019-03-30T22:08:19.639Z,61.23
2019-03-30T22:10:48.097Z,60.17
2019-03-30T22:13:16.627Z,60.07
2019-03-30T22:15:45.082Z,61.33
2019-03-30T22:18:13.626Z,59.53
2019-03-30T22:20:42.127Z,61.70
2019-03-30T22:23:10.747Z,62.63
2019-03-30T22:25:39.207Z,60.67
2019-03-30T22:28:07.726Z,68.20
2019-03-30T22:30:36.214Z,57.73
2019-03-30T22:33:04.817Z,54.97
2019-03-30T22:35:35.033Z,68.20
2019-03-30T22:38:03.551Z,64.50
2019-03-30T22:40:32.004Z,70.13
2019-03-30T22:43:00.552Z,67.13
2019-03-30T22:45:29.031Z,70.10
2019-03-30T22:47:57.555Z,62.67
2019-03-30T22:50:26.082Z,63.43
2019-03-30T22:52:54.543Z,66.70
2019-03-30T22:55:23.115Z,64.23
2019-03-30T22:57:51.604Z,64.97
2019-03-30T23:00:22.103Z,70.80
2019-03-30T23:02:50.583Z,69.23
2019-03-30T23:05:19.112Z,63.43
2019-03-30T23:07:47.573Z,67.27
2019-03-30T23:10:16.061Z,73.23
2019-03-30T23:12:44.603Z,71.97
2019-03-30T23:15:13.083Z,66.43
2019-03-30T23:17:41.547Z,64.90
2019-03-30T23:20:10.139Z,68.37
2019-03-30T23:22:38.582Z,66.63
2019-03-30T23:25:07.416Z,68.00
2019-03-30T23:27:35.877Z,74.47
2019-03-30T23:30:06.690Z,74.23
2019-03-30T23:32:35.142Z,74.93
2019-03-30T23:35:04.075Z,81.17
2019-03-30T23:37:32.546Z,84.83
2019-03-30T23:40:02.633Z,86.97
2019-03-30T23:42:31.149Z,89.43
2019-03-30T23:44:59.600Z,88.63
2019-03-30T23:47:28.076Z,83.33
2019-03-30T23:49:56.566Z,77.83
2019-03-30T23:52:25.007Z,76.70
2019-03-30T23:54:53.754Z,85.73
2019-03-30T23:57:22.244Z,68.90
2019-03-30T23:59:50.777Z,81.73
